Time;durP1;ratioP1;P1;durP2;ratioP2;P2;SDS_P1;SDS_P2;PMS_P1;PMS_P2;Temp;Humidity;BMP_temperature;BMP_pressure;BME280_temperature;BME280_humidity;BME280_pressure;Samples;Min_cycle;Max_cycle;Signal;HPM_P1;HPM_P2
2023/07/15 00:02:57;;;;;;;6.28;3.40;;;;;;;20.57;47.12;100799.00;15486167;28;20042;-45
2023/07/15 00:10:31;;;;;;;5.30;3.50;;;;;;;20.89;46.95;100795.94;15445745;28;1070719;-47
2023/07/15 00:18:06;;;;;;;7.43;3.67;;;;;;;20.92;47.19;100778.19;15411643;28;20051;-47
2023/07/15 00:25:39;;;;;;;4.80;3.63;;;;;;;20.59;48.19;100764.09;15426153;28;20122;-55
2023/07/15 00:33:16;;;;;;;5.90;3.60;;;;;;;20.34;48.04;100756.75;15428188;28;20050;-46
2023/07/15 00:40:50;;;;;;;7.75;3.85;;;;;;;20.37;48.90;100748.00;15394805;28;20051;-48
2023/07/15 00:48:30;;;;;;;5.95;3.33;;;;;;;19.98;49.33;100759.50;15410015;28;20051;-50
2023/07/15 00:56:05;;;;;;;8.02;4.05;;;;;;;20.05;49.73;100743.69;15410828;28;20082;-51
2023/07/15 01:03:40;;;;;;;8.18;4.10;;;;;;;19.98;49.98;100740.41;15411016;28;20134;-47
2023/07/15 01:11:13;;;;;;;7.07;4.30;;;;;;;20.01;50.04;100736.34;15409515;28;20077;-52
2023/07/15 01:18:47;;;;;;;6.03;3.80;;;;;;;19.83;50.53;100732.25;15410108;28;20129;-48
2023/07/15 01:26:26;;;;;;;6.60;3.92;;;;;;;19.72;51.02;100714.25;15410841;28;20539;-50
2023/07/15 01:34:00;;;;;;;7.53;3.78;;;;;;;19.60;51.54;100709.09;15426241;28;20472;-48
2023/07/15 01:41:36;;;;;;;8.02;4.05;;;;;;;19.31;52.41;100701.41;15420736;28;20047;-47
2023/07/15 01:49:09;;;;;;;9.93;4.13;;;;;;;19.72;51.10;100689.75;15420061;28;20041;-50
2023/07/15 01:56:43;;;;;;;5.38;4.03;;;;;;;19.45;52.50;100695.44;15437955;28;20126;-46
2023/07/15 02:04:16;;;;;;;6.70;4.20;;;;;;;19.26;52.73;100690.50;15418838;28;20098;-48
2023/07/15 02:11:50;;;;;;;10.57;4.57;;;;;;;19.33;52.09;100696.50;15434034;28;20216;-49
2023/07/15 02:19:23;;;;;;;5.90;4.60;;;;;;;19.25;52.42;100690.75;15477923;28;20507;-46
2023/07/15 02:26:57;;;;;;;;;;;;;;;19.40;52.30;100682.63;15477786;28;20216;-48
2023/07/15 02:34:30;;;;;;;9.02;4.70;;;;;;;19.41;52.11;100684.25;15477128;28;19922;-52
2023/07/15 02:42:05;;;;;;;9.32;4.55;;;;;;;19.00;53.40;100681.44;15469393;28;20046;-50
2023/07/15 02:49:37;;;;;;;6.25;4.10;;;;;;;19.17;53.23;100686.66;15475806;28;20077;-48
2023/07/15 02:57:12;;;;;;;11.27;4.72;;;;;;;18.84;54.33;100687.94;15459922;28;20042;-46
2023/07/15 03:04:45;;;;;;;6.20;4.80;;;;;;;19.05;53.83;100678.75;15460112;28;20076;-49
2023/07/15 03:12:19;;;;;;;7.05;4.70;;;;;;;19.02;53.50;100659.41;15471931;28;20050;-48
2023/07/15 03:19:52;;;;;;;9.93;5.20;;;;;;;18.87;54.12;100665.63;15431648;28;20518;-48
2023/07/15 03:27:26;;;;;;;;;;;;;;;18.73;55.12;100664.50;15414663;28;20105;-48
2023/07/15 03:34:59;;;;;;;7.78;4.95;;;;;;;18.90;54.71;100656.13;15413661;28;19922;-46
2023/07/15 03:42:34;;;;;;;;;;;;;;;18.56;56.25;100657.34;15430266;28;20059;-45
2023/07/15 03:50:10;;;;;;;8.18;4.55;;;;;;;18.76;55.46;100644.94;15430028;28;19952;-48
2023/07/15 03:57:44;;;;;;;8.13;4.65;;;;;;;18.81;55.46;100639.50;15429810;28;20043;-49
2023/07/15 04:05:17;;;;;;;8.73;5.07;;;;;;;18.99;55.59;100651.81;15411886;28;20058;-49
2023/07/15 04:12:51;;;;;;;10.35;5.03;;;;;;;18.96;56.57;100650.41;15435819;28;20112;-50
2023/07/15 04:20:24;;;;;;;10.82;5.40;;;;;;;19.30;56.88;100639.88;15489342;28;20062;-52
2023/07/15 04:27:59;;;;;;;;;;;;;;;19.04;56.46;100636.31;15489348;28;20524;-45
2023/07/15 04:35:31;;;;;;;7.05;4.90;;;;;;;19.32;55.18;100618.66;15488347;28;20012;-48
2023/07/15 04:43:05;;;;;;;;;;;;;;;19.55;54.88;100625.47;15487771;28;20099;-46
2023/07/15 04:50:40;;;;;;;9.75;4.78;;;;;;;19.78;54.45;100626.03;15487474;28;19972;-45
2023/07/15 04:58:15;;;;;;;9.48;4.80;;;;;;;19.92;54.44;100635.28;15487319;28;20121;-45
2023/07/15 05:05:49;;;;;;;10.32;4.88;;;;;;;19.90;54.48;100628.44;15486204;28;20038;-57
2023/07/15 05:13:23;;;;;;;7.47;4.60;;;;;;;20.29;54.10;100624.00;15447500;28;20043;-57
2023/07/15 05:20:57;;;;;;;5.75;4.32;;;;;;;20.25;53.87;100625.66;15438913;28;20097;-55
2023/07/15 05:28:32;;;;;;;8.45;4.53;;;;;;;20.67;53.25;100624.44;15438377;28;20122;-53
2023/07/15 05:36:07;;;;;;;11.70;4.75;;;;;;;20.73;52.53;100626.03;15438193;28;20089;-57
2023/07/15 05:43:41;;;;;;;7.30;4.20;;;;;;;21.30;51.21;100632.75;15419909;28;20055;-58
2023/07/15 05:51:14;;;;;;;6.82;4.22;;;;;;;21.43;50.95;100633.25;15437146;28;20412;-54
2023/07/15 05:58:48;;;;;;;9.02;4.40;;;;;;;21.95;49.37;100631.69;15419462;28;20178;-60
2023/07/15 06:06:21;;;;;;;5.93;3.67;;;;;;;21.70;49.05;100599.97;15435696;28;20093;-59
2023/07/15 06:13:57;;;;;;;6.80;4.07;;;;;;;22.70;46.76;100626.47;15451726;28;20128;-57
2023/07/15 06:21:31;;;;;;;7.32;4.40;;;;;;;22.80;46.63;100625.50;15476866;28;20137;-56
2023/07/15 06:29:05;;;;;;;7.90;4.25;;;;;;;23.62;45.65;100616.88;15494647;28;20491;-57
2023/07/15 06:36:39;;;;;;;5.38;3.90;;;;;;;23.85;44.48;100615.13;15494401;28;20046;-55
2023/07/15 06:44:13;;;;;;;13.32;3.80;;;;;;;24.46;43.91;100622.19;15494565;28;20055;-58
2023/07/15 06:51:45;;;;;;;6.35;3.75;;;;;;;24.39;43.39;100619.88;15467361;28;20107;-60
2023/07/15 06:59:21;;;;;;;7.90;3.90;;;;;;;24.91;42.84;100612.16;15419158;28;20055;-60
2023/07/15 07:06:53;;;;;;;5.80;3.60;;;;;;;25.26;41.14;100608.91;15459437;28;20051;-58
2023/07/15 07:14:28;;;;;;;6.45;3.50;;;;;;;26.12;39.19;100598.44;15452615;28;20136;-57
2023/07/15 07:22:00;;;;;;;5.13;3.40;;;;;;;26.28;38.20;100596.06;15477833;28;20062;-59
2023/07/15 07:29:35;;;;;;;4.75;3.80;;;;;;;26.63;37.70;100588.72;15456791;28;20046;-60
2023/07/15 07:37:09;;;;;;;5.45;3.83;;;;;;;26.43;38.24;100581.88;15488206;28;20413;-60
2023/07/15 07:44:44;;;;;;;5.65;3.67;;;;;;;27.19;37.54;100564.13;15451898;28;20491;-53
2023/07/15 07:52:16;;;;;;;6.80;3.78;;;;;;;27.32;36.98;100560.34;15461850;28;20053;-60
2023/07/15 07:59:51;;;;;;;6.18;3.60;;;;;;;28.37;35.70;100560.81;15456151;28;20229;-55
2023/07/15 08:07:23;;;;;;;5.78;3.53;;;;;;;28.88;34.50;100556.06;15438605;28;20046;-55
2023/07/15 08:14:58;;;;;;;6.25;3.63;;;;;;;28.84;35.18;100547.63;15463360;28;20089;-60
2023/07/15 08:22:31;;;;;;;6.53;3.67;;;;;;;29.49;34.78;100545.25;15435758;28;20101;-58
2023/07/15 08:30:09;;;;;;;4.63;3.20;;;;;;;29.55;34.64;100543.88;15435515;28;20043;-60
2023/07/15 08:37:42;;;;;;;5.72;3.30;;;;;;;29.66;33.63;100552.56;15427458;28;20042;-60
2023/07/15 08:45:17;;;;;;;4.38;2.63;;;;;;;30.14;33.19;100539.94;15433205;28;20053;-58
2023/07/15 08:52:50;;;;;;;5.15;2.92;;;;;;;30.18;32.91;100540.84;15455323;28;20472;-59
2023/07/15 09:00:25;;;;;;;5.60;2.90;;;;;;;30.10;33.15;100539.78;15469888;28;20047;-55
2023/07/15 09:07:58;;;;;;;4.05;2.50;;;;;;;31.05;31.59;100525.59;15452781;28;20133;-56
2023/07/15 09:15:33;;;;;;;5.47;2.45;;;;;;;32.37;31.17;100515.09;15441487;28;20332;-59
2023/07/15 09:23:06;;;;;;;5.25;2.70;;;;;;;32.39;29.88;100521.09;15425950;28;20055;-61
2023/07/15 09:30:41;;;;;;;4.15;2.40;;;;;;;32.40;29.48;100512.38;15448527;28;20054;-57
2023/07/15 09:38:14;;;;;;;5.63;2.53;;;;;;;31.82;30.18;100520.56;15458152;28;20139;-60
2023/07/15 09:45:50;;;;;;;6.10;2.08;;;;;;;32.74;28.94;100505.19;15457589;28;20228;-60
2023/07/15 09:53:23;;;;;;;5.25;1.98;;;;;;;32.34;29.87;100515.78;15461309;28;20050;-59
2023/07/15 10:01:04;;;;;;;4.50;2.30;;;;;;;31.80;29.94;100520.06;15459998;28;20348;-58
2023/07/15 10:08:38;;;;;;;3.53;2.25;;;;;;;32.26;28.23;100521.19;15458001;28;20050;-57
2023/07/15 10:16:13;;;;;;;5.05;2.15;;;;;;;33.31;28.72;100516.63;15465883;28;20086;-58
2023/07/15 10:23:46;;;;;;;2.97;2.00;;;;;;;33.34;26.83;100528.97;15464227;28;20046;-52
2023/07/15 10:31:25;;;;;;;6.20;2.22;;;;;;;34.51;27.06;100524.53;15448462;28;20034;-59
2023/07/15 10:39:09;;;;;;;2.00;1.80;;;;;;;34.90;24.24;100527.00;15438671;28;20062;-58
2023/07/15 10:46:46;;;;;;;3.95;1.50;;;;;;;34.64;24.27;100523.09;15467689;28;20551;-59
2023/07/15 10:54:21;;;;;;;4.15;1.83;;;;;;;34.64;23.76;100534.25;15446514;28;20050;-57
2023/07/15 11:01:55;;;;;;;3.47;1.98;;;;;;;34.46;22.94;100527.63;15459316;28;20047;-58
2023/07/15 11:09:30;;;;;;;4.03;1.77;;;;;;;34.18;23.94;100511.28;15466504;28;20046;-59
2023/07/15 11:17:05;;;;;;;4.00;1.83;;;;;;;35.46;23.10;100526.84;15456527;28;20536;-57
2023/07/15 11:24:38;;;;;;;3.55;1.60;;;;;;;35.53;20.75;100534.47;15446239;28;20408;-59
2023/07/15 11:32:12;;;;;;;4.22;1.80;;;;;;;35.28;22.25;100514.69;15438677;28;20133;-59
2023/07/15 11:39:49;;;;;;;2.70;1.40;;;;;;;35.97;21.11;100495.34;15465607;28;20058;-59
2023/07/15 11:47:23;;;;;;;2.97;1.40;;;;;;;35.86;21.48;100500.06;15455523;28;20093;-56
2023/07/15 11:54:57;;;;;;;3.67;1.58;;;;;;;36.60;21.22;100507.28;15488485;28;20046;-58
2023/07/15 12:02:33;;;;;;;3.58;1.70;;;;;;;36.13;22.09;100489.47;15490368;28;20130;-60
2023/07/15 12:10:07;;;;;;;2.95;1.63;;;;;;;36.82;19.95;100487.78;15486453;28;20192;-58
2023/07/15 12:17:42;;;;;;;3.00;1.50;;;;;;;37.11;20.38;100474.69;15412239;28;20046;-58
2023/07/15 12:25:14;;;;;;;5.63;1.30;;;;;;;37.15;20.44;100464.28;15427088;28;20090;-55
2023/07/15 12:32:49;;;;;;;6.32;1.42;;;;;;;36.24;19.54;100456.78;15428749;28;20090;-58
2023/07/15 12:40:23;;;;;;;3.70;1.40;;;;;;;36.76;19.21;100457.41;15411452;28;20042;-57
2023/07/15 12:47:58;;;;;;;2.22;1.20;;;;;;;37.38;19.04;100435.94;15411138;28;20051;-58
2023/07/15 12:55:31;;;;;;;1.50;1.30;;;;;;;37.60;19.89;100440.34;15428141;28;20453;-57
2023/07/15 13:03:06;;;;;;;3.03;1.30;;;;;;;36.95;18.95;100427.50;15428248;28;20543;-60
2023/07/15 13:10:43;;;;;;;5.05;1.25;;;;;;;36.45;19.93;100427.34;15427036;28;20558;-54
2023/07/15 13:18:26;;;;;;;4.32;1.70;;;;;;;35.94;20.55;100422.66;15410305;28;20054;-56
2023/07/15 13:26:00;;;;;;;2.90;1.27;;;;;;;35.80;21.21;100422.59;15426953;28;20076;-59
2023/07/15 13:33:34;;;;;;;2.45;1.20;;;;;;;35.38;21.69;100419.06;15431660;28;20142;-58
2023/07/15 13:41:07;;;;;;;1.88;1.17;;;;;;;35.55;21.39;100416.84;15473297;28;20059;-54
2023/07/15 13:48:44;;;;;;;2.95;1.30;;;;;;;34.49;21.89;100420.97;15453462;28;20134;-55
2023/07/15 13:56:18;;;;;;;2.42;1.20;;;;;;;34.73;21.90;100414.88;15464725;28;20117;-58
2023/07/15 14:03:53;;;;;;;4.13;1.50;;;;;;;34.69;21.56;100410.44;15460696;28;20051;-57
2023/07/15 14:11:26;;;;;;;3.17;1.33;;;;;;;34.34;22.40;100406.03;15445690;28;20047;-56
2023/07/15 14:19:00;;;;;;;5.38;1.70;;;;;;;34.64;22.83;100413.56;15454706;28;20130;-56
2023/07/15 14:26:33;;;;;;;2.72;1.50;;;;;;;34.64;22.29;100403.22;15444818;28;20043;-60
2023/07/15 14:34:07;;;;;;;4.88;2.42;;;;;;;34.71;22.24;100383.00;15410264;28;20042;-59
2023/07/15 14:41:42;;;;;;;2.38;1.27;;;;;;;34.90;22.14;100376.41;15455891;28;20105;-57
2023/07/15 14:49:17;;;;;;;3.83;1.20;;;;;;;34.96;21.62;100375.69;15450807;28;20134;-55
2023/07/15 14:56:51;;;;;;;4.43;1.20;;;;;;;35.48;21.76;100379.28;15457459;28;20046;-58
2023/07/15 15:04:25;;;;;;;2.13;1.13;;;;;;;35.23;21.20;100381.88;15418693;28;20035;-60
2023/07/15 15:11:58;;;;;;;1.52;1.10;;;;;;;35.26;21.32;100372.75;15431612;28;20057;-59
2023/07/15 15:19:34;;;;;;;3.13;1.08;;;;;;;34.76;21.74;100365.91;15491582;28;20109;-58
2023/07/15 15:27:08;;;;;;;1.58;0.98;;;;;;;35.01;21.13;100355.78;15491792;28;20193;-59
2023/07/15 15:34:42;;;;;;;1.92;1.33;;;;;;;35.63;22.11;100359.84;15457727;28;20102;-56
2023/07/15 15:42:15;;;;;;;2.40;1.33;;;;;;;34.46;27.69;100350.09;15491124;28;20109;-56
2023/07/15 15:49:50;;;;;;;4.75;1.30;;;;;;;34.45;28.65;100340.06;15473541;28;20054;-56
2023/07/15 15:57:24;;;;;;;4.18;1.80;;;;;;;34.04;29.69;100361.47;15491180;28;20050;-58
2023/07/15 16:04:59;;;;;;;3.10;1.50;;;;;;;33.03;29.61;100352.03;15490208;28;20089;-60
2023/07/15 16:12:33;;;;;;;3.22;1.67;;;;;;;33.18;30.30;100367.75;15468468;28;20047;-59
2023/07/15 16:20:08;;;;;;;6.55;1.90;;;;;;;32.43;30.79;100363.63;15413195;28;20038;-56
2023/07/15 16:27:42;;;;;;;4.82;2.28;;;;;;;32.62;31.21;100363.59;15429651;28;20035;-58
2023/07/15 16:35:18;;;;;;;10.90;2.65;;;;;;;32.28;31.33;100358.94;15428765;28;20050;-59
2023/07/15 16:42:52;;;;;;;4.65;2.40;;;;;;;31.88;32.18;100355.31;15428831;28;20133;-58
2023/07/15 16:50:26;;;;;;;4.45;2.50;;;;;;;31.86;32.39;100352.13;15429003;28;20039;-59
2023/07/15 16:57:59;;;;;;;8.45;2.63;;;;;;;31.81;32.23;100341.28;15428038;28;20070;-57
2023/07/15 17:05:33;;;;;;;7.50;2.80;;;;;;;32.04;33.17;100330.28;15425437;23;20169;-54
2023/07/15 17:13:06;;;;;;;7.05;2.55;;;;;;;31.67;34.05;100355.66;15374337;28;20264;-59
2023/07/15 17:20:41;;;;;;;10.35;3.60;;;;;;;31.76;33.62;100361.00;15366732;29;20146;-58
2023/07/15 17:28:14;;;;;;;8.60;3.10;;;;;;;31.69;34.58;100358.84;15384153;29;20049;-60
2023/07/15 17:35:50;;;;;;;6.45;3.15;;;;;;;31.59;35.14;100359.41;15384465;29;20575;-60
2023/07/15 17:43:23;;;;;;;9.13;2.70;;;;;;;31.37;34.95;100365.63;15383558;29;20047;-59
2023/07/15 17:50:57;;;;;;;6.97;2.75;;;;;;;31.35;36.58;100362.44;15381307;29;20044;-59
2023/07/15 17:58:31;;;;;;;5.28;2.75;;;;;;;31.10;39.98;100350.69;15382583;29;20046;-59
2023/07/15 18:06:05;;;;;;;6.10;2.60;;;;;;;30.87;42.66;100342.19;15381975;28;20055;-59
2023/07/15 18:13:38;;;;;;;7.97;3.05;;;;;;;30.56;41.15;100337.41;15350102;29;20054;-59
2023/07/15 18:21:13;;;;;;;9.02;5.25;;;;;;;30.07;42.46;100312.69;15305008;29;20074;-60
2023/07/15 18:28:47;;;;;;;8.50;4.47;;;;;;;29.84;43.05;100291.06;15340171;28;20047;-58
2023/07/15 18:36:21;;;;;;;9.70;3.65;;;;;;;29.98;41.78;100290.69;15304083;29;20091;-54
2023/07/15 18:43:55;;;;;;;6.00;3.60;;;;;;;29.78;43.81;100291.69;15303345;29;20052;-59
2023/07/15 18:51:30;;;;;;;7.13;3.05;;;;;;;29.54;42.78;100262.09;15320055;29;20043;-53
2023/07/15 18:59:03;;;;;;;9.00;3.78;;;;;;;29.29;44.39;100262.16;15321907;29;20052;-56
2023/07/15 19:06:38;;;;;;;6.38;3.67;;;;;;;29.16;45.01;100280.72;15326091;28;20095;-55
2023/07/15 19:14:11;;;;;;;7.78;3.53;;;;;;;28.96;44.99;100274.16;15339890;29;20488;-58
2023/07/15 19:21:47;;;;;;;8.43;3.97;;;;;;;28.70;45.77;100298.50;15380623;29;20050;-60
2023/07/15 19:29:20;;;;;;;8.68;4.00;;;;;;;28.51;46.12;100295.50;15379997;28;20134;-59
2023/07/15 19:36:54;;;;;;;7.40;3.90;;;;;;;28.39;46.54;100305.34;15359887;29;20055;-57
2023/07/15 19:44:27;;;;;;;6.75;3.55;;;;;;;28.22;46.67;100299.97;15376237;29;20067;-58
2023/07/15 19:52:01;;;;;;;8.35;4.20;;;;;;;28.21;46.96;100309.38;15375686;29;20131;-58
2023/07/15 19:59:34;;;;;;;8.05;4.30;;;;;;;27.59;46.33;100346.84;15375647;29;20051;-58
2023/07/15 20:07:08;;;;;;;6.63;4.00;;;;;;;27.29;46.96;100394.88;15342299;28;20417;-58
2023/07/15 20:14:43;;;;;;;5.35;3.15;;;;;;;26.95;47.06;100463.50;15375061;29;20051;-57
2023/07/15 20:22:18;;;;;;;5.50;2.72;;;;;;;26.42;49.56;100507.84;15375065;29;20043;-58
2023/07/15 20:29:51;;;;;;;6.75;2.25;;;;;;;26.61;48.26;100521.34;15374057;29;20661;-57
2023/07/15 20:37:26;;;;;;;11.77;2.13;;;;;;;26.35;49.33;100521.31;15372494;29;20074;-59
2023/07/15 20:44:58;;;;;;;7.68;1.90;;;;;;;26.35;49.19;100549.63;15372583;28;20051;-58
2023/07/15 20:52:33;;;;;;;5.00;1.90;;;;;;;26.59;47.88;100592.44;15373753;29;20409;-58
2023/07/15 21:00:07;;;;;;;4.75;1.77;;;;;;;26.40;47.98;100600.97;15356240;29;20035;-57
2023/07/15 21:07:43;;;;;;;5.85;1.90;;;;;;;27.14;45.54;100609.19;15374022;28;20142;-53
2023/07/15 21:15:16;;;;;;;3.13;2.05;;;;;;;26.36;47.96;100631.06;15329024;29;20107;-56
2023/07/15 21:22:50;;;;;;;4.75;1.95;;;;;;;26.02;49.31;100603.38;15313238;29;20398;-59
2023/07/15 21:30:23;;;;;;;9.05;2.15;;;;;;;24.96;55.74;100558.25;15312620;29;20055;-59
2023/07/15 21:37:58;;;;;;;5.97;2.90;;;;;;;24.02;60.47;100464.56;15312792;29;20048;-59
2023/07/15 21:45:31;;;;;;;6.57;2.60;;;;;;;24.03;61.50;100427.81;15295664;29;20052;-58
2023/07/15 21:53:06;;;;;;;4.38;2.92;;;;;;;24.31;61.69;100423.06;15315891;29;20054;-59
2023/07/15 22:00:39;;;;;;;5.75;3.28;;;;;;;24.55;62.14;100436.50;15323129;29;20055;-58
2023/07/15 22:08:16;;;;;;;4.95;3.03;;;;;;;24.32;60.30;100429.34;15322109;29;20091;-56
2023/07/15 22:15:49;;;;;;;4.75;2.40;;;;;;;23.89;58.34;100347.53;15352244;29;20058;-59
2023/07/15 22:23:23;;;;;;;3.58;2.60;;;;;;;24.36;60.04;100342.56;15381110;29;20500;-58
2023/07/15 22:30:56;;;;;;;5.85;2.70;;;;;;;24.24;59.58;100334.88;15379937;29;20480;-58
2023/07/15 22:38:31;;;;;;;5.28;2.95;;;;;;;24.51;60.48;100322.19;15380368;29;20055;-58
2023/07/15 22:46:04;;;;;;;4.85;3.08;;;;;;;24.12;61.45;100321.75;15379991;29;20051;-54
2023/07/15 22:53:38;;;;;;;5.32;3.00;;;;;;;24.23;61.58;100313.25;15378534;29;20042;-56
2023/07/15 23:01:12;;;;;;;3.28;2.83;;;;;;;24.36;61.54;100323.38;15353349;29;20057;-56
2023/07/15 23:08:46;;;;;;;4.93;3.05;;;;;;;24.34;61.29;100322.84;15400680;23;20043;-55
2023/07/15 23:16:19;;;;;;;3.55;2.53;;;;;;;23.99;62.04;100344.53;15438668;28;20042;-53
2023/07/15 23:23:53;;;;;;;5.40;2.95;;;;;;;23.93;61.65;100362.22;15492205;28;20359;-49
2023/07/15 23:31:30;;;;;;;3.88;2.75;;;;;;;24.08;60.92;100353.66;15474461;28;20049;-51
2023/07/15 23:39:05;;;;;;;4.20;3.10;;;;;;;23.65;62.64;100356.00;15459396;28;20056;-49
2023/07/15 23:46:37;;;;;;;9.07;3.30;;;;;;;23.53;62.82;100337.31;15492565;28;20109;-50
2023/07/15 23:54:12;;;;;;;7.60;3.28;;;;;;;23.60;62.22;100326.75;15491665;28;20046;-56
